sensor_id;sensor_type;location;lat;lon;timestamp;temperature;humidity
33580;DHT22;19909;43.644;-79.438;2023-02-28T00:01:44;15.80;33.00
33580;DHT22;19909;43.644;-79.438;2023-02-28T00:04:10;15.90;33.10
33580;DHT22;19909;43.644;-79.438;2023-02-28T00:06:36;16.00;33.10
33580;DHT22;19909;43.644;-79.438;2023-02-28T00:09:03;16.10;33.10
33580;DHT22;19909;43.644;-79.438;2023-02-28T00:11:29;16.10;33.20
33580;DHT22;19909;43.644;-79.438;2023-02-28T00:13:55;16.10;33.20
33580;DHT22;19909;43.644;-79.438;2023-02-28T00:16:22;16.10;33.20
33580;DHT22;19909;43.644;-79.438;2023-02-28T00:18:49;16.10;33.80
33580;DHT22;19909;43.644;-79.438;2023-02-28T00:21:16;16.10;33.20
33580;DHT22;19909;43.644;-79.438;2023-02-28T00:23:43;16.10;33.30
33580;DHT22;19909;43.644;-79.438;2023-02-28T00:26:09;16.10;33.40
33580;DHT22;19909;43.644;-79.438;2023-02-28T00:28:35;16.10;33.20
33580;DHT22;19909;43.644;-79.438;2023-02-28T00:31:02;16.10;33.00
33580;DHT22;19909;43.644;-79.438;2023-02-28T00:33:29;16.10;33.00
33580;DHT22;19909;43.644;-79.438;2023-02-28T00:36:07;16.00;32.90
33580;DHT22;19909;43.644;-79.438;2023-02-28T00:38:33;16.00;33.00
33580;DHT22;19909;43.644;-79.438;2023-02-28T00:41:00;16.00;33.00
33580;DHT22;19909;43.644;-79.438;2023-02-28T00:43:31;16.00;33.00
33580;DHT22;19909;43.644;-79.438;2023-02-28T00:45:57;16.00;33.00
33580;DHT22;19909;43.644;-79.438;2023-02-28T00:48:23;16.00;32.90
33580;DHT22;19909;43.644;-79.438;2023-02-28T00:50:50;16.00;33.00
33580;DHT22;19909;43.644;-79.438;2023-02-28T00:53:16;16.00;33.10
33580;DHT22;19909;43.644;-79.438;2023-02-28T00:55:42;16.00;33.20
33580;DHT22;19909;43.644;-79.438;2023-02-28T00:58:08;15.90;33.10
33580;DHT22;19909;43.644;-79.438;2023-02-28T01:00:34;15.90;33.00
33580;DHT22;19909;43.644;-79.438;2023-02-28T01:03:00;15.90;33.00
33580;DHT22;19909;43.644;-79.438;2023-02-28T01:05:26;15.90;33.00
33580;DHT22;19909;43.644;-79.438;2023-02-28T01:07:53;15.90;33.10
33580;DHT22;19909;43.644;-79.438;2023-02-28T01:10:19;15.90;33.20
33580;DHT22;19909;43.644;-79.438;2023-02-28T01:12:46;15.90;33.10
33580;DHT22;19909;43.644;-79.438;2023-02-28T01:15:12;15.90;33.00
33580;DHT22;19909;43.644;-79.438;2023-02-28T01:17:38;15.90;33.00
33580;DHT22;19909;43.644;-79.438;2023-02-28T01:20:06;15.90;33.20
33580;DHT22;19909;43.644;-79.438;2023-02-28T01:22:34;15.90;33.20
33580;DHT22;19909;43.644;-79.438;2023-02-28T01:25:01;15.90;33.20
33580;DHT22;19909;43.644;-79.438;2023-02-28T01:27:27;16.00;33.40
33580;DHT22;19909;43.644;-79.438;2023-02-28T01:29:54;16.10;33.40
33580;DHT22;19909;43.644;-79.438;2023-02-28T01:32:21;16.10;33.20
33580;DHT22;19909;43.644;-79.438;2023-02-28T01:34:47;16.10;33.20
33580;DHT22;19909;43.644;-79.438;2023-02-28T01:37:13;16.10;33.30
33580;DHT22;19909;43.644;-79.438;2023-02-28T01:39:39;16.10;33.40
33580;DHT22;19909;43.644;-79.438;2023-02-28T01:42:07;16.10;33.40
33580;DHT22;19909;43.644;-79.438;2023-02-28T01:47:41;16.10;33.00
33580;DHT22;19909;43.644;-79.438;2023-02-28T01:50:16;16.10;33.10
33580;DHT22;19909;43.644;-79.438;2023-02-28T01:52:44;16.00;33.10
33580;DHT22;19909;43.644;-79.438;2023-02-28T01:55:12;16.00;33.10
33580;DHT22;19909;43.644;-79.438;2023-02-28T01:57:45;16.00;33.00
33580;DHT22;19909;43.644;-79.438;2023-02-28T02:00:15;16.00;33.00
33580;DHT22;19909;43.644;-79.438;2023-02-28T02:02:44;16.00;33.00
33580;DHT22;19909;43.644;-79.438;2023-02-28T02:05:21;16.00;33.10
33580;DHT22;19909;43.644;-79.438;2023-02-28T02:07:51;15.90;33.20
33580;DHT22;19909;43.644;-79.438;2023-02-28T02:13:49;15.90;33.20
33580;DHT22;19909;43.644;-79.438;2023-02-28T02:16:34;15.90;33.10
33580;DHT22;19909;43.644;-79.438;2023-02-28T02:35:50;15.90;33.40
33580;DHT22;19909;43.644;-79.438;2023-02-28T02:42:16;16.00;33.50
33580;DHT22;19909;43.644;-79.438;2023-02-28T02:44:21;16.10;33.70
33580;DHT22;19909;43.644;-79.438;2023-02-28T02:46:50;16.10;33.50
33580;DHT22;19909;43.644;-79.438;2023-02-28T02:49:27;16.10;33.50
33580;DHT22;19909;43.644;-79.438;2023-02-28T02:51:57;16.10;33.50
33580;DHT22;19909;43.644;-79.438;2023-02-28T02:54:33;16.10;33.60
33580;DHT22;19909;43.644;-79.438;2023-02-28T02:57:08;16.10;33.60
33580;DHT22;19909;43.644;-79.438;2023-02-28T02:59:37;16.10;33.40
33580;DHT22;19909;43.644;-79.438;2023-02-28T03:02:07;16.10;33.20
33580;DHT22;19909;43.644;-79.438;2023-02-28T03:04:56;16.10;33.40
33580;DHT22;19909;43.644;-79.438;2023-02-28T03:07:26;16.10;33.50
33580;DHT22;19909;43.644;-79.438;2023-02-28T03:09:55;16.10;33.50
33580;DHT22;19909;43.644;-79.438;2023-02-28T03:12:29;16.00;33.40
33580;DHT22;19909;43.644;-79.438;2023-02-28T03:15:11;16.00;33.40
33580;DHT22;19909;43.644;-79.438;2023-02-28T03:18:01;16.00;33.30
33580;DHT22;19909;43.644;-79.438;2023-02-28T03:20:40;16.00;33.30
33580;DHT22;19909;43.644;-79.438;2023-02-28T03:23:17;16.00;33.40
33580;DHT22;19909;43.644;-79.438;2023-02-28T03:25:53;16.00;33.50
33580;DHT22;19909;43.644;-79.438;2023-02-28T03:31:15;16.00;33.40
33580;DHT22;19909;43.644;-79.438;2023-02-28T03:33:47;15.90;33.40
33580;DHT22;19909;43.644;-79.438;2023-02-28T03:36:26;15.90;33.40
33580;DHT22;19909;43.644;-79.438;2023-02-28T03:39:03;15.90;33.60
33580;DHT22;19909;43.644;-79.438;2023-02-28T03:41:59;15.90;33.40
33580;DHT22;19909;43.644;-79.438;2023-02-28T03:44:47;15.90;33.30
33580;DHT22;19909;43.644;-79.438;2023-02-28T03:47:19;16.00;33.40
33580;DHT22;19909;43.644;-79.438;2023-02-28T03:49:59;15.90;33.40
33580;DHT22;19909;43.644;-79.438;2023-02-28T03:52:31;15.90;33.60
33580;DHT22;19909;43.644;-79.438;2023-02-28T03:55:03;15.90;33.50
33580;DHT22;19909;43.644;-79.438;2023-02-28T04:00:19;15.90;33.50
33580;DHT22;19909;43.644;-79.438;2023-02-28T04:02:46;15.90;33.50
33580;DHT22;19909;43.644;-79.438;2023-02-28T04:05:12;15.90;33.50
33580;DHT22;19909;43.644;-79.438;2023-02-28T04:07:38;15.90;33.50
33580;DHT22;19909;43.644;-79.438;2023-02-28T04:10:05;15.80;33.50
33580;DHT22;19909;43.644;-79.438;2023-02-28T04:12:32;15.80;33.50
33580;DHT22;19909;43.644;-79.438;2023-02-28T04:14:58;15.90;33.60
33580;DHT22;19909;43.644;-79.438;2023-02-28T04:17:24;15.90;33.60
33580;DHT22;19909;43.644;-79.438;2023-02-28T04:19:51;15.90;33.60
33580;DHT22;19909;43.644;-79.438;2023-02-28T04:22:17;15.80;33.50
33580;DHT22;19909;43.644;-79.438;2023-02-28T04:24:43;15.80;34.10
33580;DHT22;19909;43.644;-79.438;2023-02-28T04:27:09;15.80;33.50
33580;DHT22;19909;43.644;-79.438;2023-02-28T04:29:36;15.80;33.50
33580;DHT22;19909;43.644;-79.438;2023-02-28T04:32:03;15.80;34.10
33580;DHT22;19909;43.644;-79.438;2023-02-28T04:34:31;15.80;33.80
33580;DHT22;19909;43.644;-79.438;2023-02-28T04:36:57;15.90;33.80
33580;DHT22;19909;43.644;-79.438;2023-02-28T04:39:24;16.00;33.90
33580;DHT22;19909;43.644;-79.438;2023-02-28T04:41:51;16.10;34.50
33580;DHT22;19909;43.644;-79.438;2023-02-28T04:44:17;16.10;33.90
33580;DHT22;19909;43.644;-79.438;2023-02-28T04:46:43;16.10;33.80
33580;DHT22;19909;43.644;-79.438;2023-02-28T04:49:13;16.10;33.70
33580;DHT22;19909;43.644;-79.438;2023-02-28T04:51:40;16.10;33.80
33580;DHT22;19909;43.644;-79.438;2023-02-28T04:54:07;16.10;34.00
33580;DHT22;19909;43.644;-79.438;2023-02-28T04:56:33;16.10;34.00
33580;DHT22;19909;43.644;-79.438;2023-02-28T04:58:59;16.10;33.70
33580;DHT22;19909;43.644;-79.438;2023-02-28T05:01:29;16.10;33.70
33580;DHT22;19909;43.644;-79.438;2023-02-28T05:03:58;16.10;33.70
33580;DHT22;19909;43.644;-79.438;2023-02-28T05:06:26;16.00;33.60
33580;DHT22;19909;43.644;-79.438;2023-02-28T05:08:53;16.00;33.70
33580;DHT22;19909;43.644;-79.438;2023-02-28T05:11:24;16.00;33.70
33580;DHT22;19909;43.644;-79.438;2023-02-28T05:13:51;16.00;33.70
33580;DHT22;19909;43.644;-79.438;2023-02-28T05:16:18;16.00;33.60
33580;DHT22;19909;43.644;-79.438;2023-02-28T05:18:45;16.00;33.60
33580;DHT22;19909;43.644;-79.438;2023-02-28T05:21:41;16.00;33.70
33580;DHT22;19909;43.644;-79.438;2023-02-28T05:24:13;16.00;33.80
33580;DHT22;19909;43.644;-79.438;2023-02-28T05:26:41;16.00;33.80
33580;DHT22;19909;43.644;-79.438;2023-02-28T05:29:09;16.00;33.70
33580;DHT22;19909;43.644;-79.438;2023-02-28T05:31:36;15.90;33.70
33580;DHT22;19909;43.644;-79.438;2023-02-28T05:34:02;15.90;33.70
33580;DHT22;19909;43.644;-79.438;2023-02-28T05:36:30;15.90;33.70
33580;DHT22;19909;43.644;-79.438;2023-02-28T05:38:56;15.90;33.80
33580;DHT22;19909;43.644;-79.438;2023-02-28T05:41:22;15.90;33.90
33580;DHT22;19909;43.644;-79.438;2023-02-28T05:43:48;15.90;33.80
33580;DHT22;19909;43.644;-79.438;2023-02-28T05:46:15;15.90;33.70
33580;DHT22;19909;43.644;-79.438;2023-02-28T05:48:42;15.90;33.80
33580;DHT22;19909;43.644;-79.438;2023-02-28T05:51:09;15.90;33.90
33580;DHT22;19909;43.644;-79.438;2023-02-28T05:53:35;15.90;33.90
33580;DHT22;19909;43.644;-79.438;2023-02-28T05:56:02;15.90;33.90
33580;DHT22;19909;43.644;-79.438;2023-02-28T05:58:29;15.90;33.80
33580;DHT22;19909;43.644;-79.438;2023-02-28T06:01:00;15.90;33.80
33580;DHT22;19909;43.644;-79.438;2023-02-28T06:03:27;15.90;33.80
33580;DHT22;19909;43.644;-79.438;2023-02-28T06:05:54;15.90;33.90
33580;DHT22;19909;43.644;-79.438;2023-02-28T06:08:21;15.80;33.90
33580;DHT22;19909;43.644;-79.438;2023-02-28T06:10:47;15.90;33.90
33580;DHT22;19909;43.644;-79.438;2023-02-28T06:13:14;15.80;33.80
33580;DHT22;19909;43.644;-79.438;2023-02-28T06:15:40;15.90;33.90
33580;DHT22;19909;43.644;-79.438;2023-02-28T06:18:07;15.80;33.90
33580;DHT22;19909;43.644;-79.438;2023-02-28T06:20:33;15.80;33.90
33580;DHT22;19909;43.644;-79.438;2023-02-28T06:23:00;15.80;34.00
33580;DHT22;19909;43.644;-79.438;2023-02-28T06:25:27;15.80;33.90
33580;DHT22;19909;43.644;-79.438;2023-02-28T06:27:54;15.80;33.90
33580;DHT22;19909;43.644;-79.438;2023-02-28T06:30:20;15.80;33.90
33580;DHT22;19909;43.644;-79.438;2023-02-28T06:32:53;15.80;34.00
33580;DHT22;19909;43.644;-79.438;2023-02-28T06:35:19;15.80;34.00
33580;DHT22;19909;43.644;-79.438;2023-02-28T06:37:45;15.80;34.00
33580;DHT22;19909;43.644;-79.438;2023-02-28T06:40:13;15.80;34.00
33580;DHT22;19909;43.644;-79.438;2023-02-28T06:42:39;15.80;34.00
33580;DHT22;19909;43.644;-79.438;2023-02-28T06:45:06;15.80;34.00
33580;DHT22;19909;43.644;-79.438;2023-02-28T06:47:36;15.80;34.00
33580;DHT22;19909;43.644;-79.438;2023-02-28T06:50:03;15.80;34.10
33580;DHT22;19909;43.644;-79.438;2023-02-28T06:52:29;15.80;34.20
33580;DHT22;19909;43.644;-79.438;2023-02-28T06:54:56;15.80;34.00
33580;DHT22;19909;43.644;-79.438;2023-02-28T06:57:29;15.80;34.00
33580;DHT22;19909;43.644;-79.438;2023-02-28T06:59:59;15.80;34.00
33580;DHT22;19909;43.644;-79.438;2023-02-28T07:02:26;15.80;34.10
33580;DHT22;19909;43.644;-79.438;2023-02-28T07:04:52;15.80;34.30
33580;DHT22;19909;43.644;-79.438;2023-02-28T07:07:19;15.90;34.30
33580;DHT22;19909;43.644;-79.438;2023-02-28T07:09:45;16.00;34.30
33580;DHT22;19909;43.644;-79.438;2023-02-28T07:12:11;16.00;34.30
33580;DHT22;19909;43.644;-79.438;2023-02-28T07:14:37;16.00;34.30
33580;DHT22;19909;43.644;-79.438;2023-02-28T07:17:03;16.00;34.30
33580;DHT22;19909;43.644;-79.438;2023-02-28T07:19:30;16.00;34.30
33580;DHT22;19909;43.644;-79.438;2023-02-28T07:21:56;16.00;34.50
33580;DHT22;19909;43.644;-79.438;2023-02-28T07:24:22;16.00;34.50
33580;DHT22;19909;43.644;-79.438;2023-02-28T07:26:51;16.00;34.40
33580;DHT22;19909;43.644;-79.438;2023-02-28T07:29:17;16.00;34.20
33580;DHT22;19909;43.644;-79.438;2023-02-28T07:31:43;16.00;34.10
33580;DHT22;19909;43.644;-79.438;2023-02-28T07:34:10;16.00;34.10
33580;DHT22;19909;43.644;-79.438;2023-02-28T07:36:36;16.00;34.20
33580;DHT22;19909;43.644;-79.438;2023-02-28T07:39:02;16.00;34.30
33580;DHT22;19909;43.644;-79.438;2023-02-28T07:41:30;16.00;34.30
33580;DHT22;19909;43.644;-79.438;2023-02-28T07:44:00;15.90;34.20
33580;DHT22;19909;43.644;-79.438;2023-02-28T07:46:26;15.90;34.20
33580;DHT22;19909;43.644;-79.438;2023-02-28T07:48:52;15.90;34.20
33580;DHT22;19909;43.644;-79.438;2023-02-28T07:51:21;15.90;34.20
33580;DHT22;19909;43.644;-79.438;2023-02-28T07:53:48;16.00;34.30
33580;DHT22;19909;43.644;-79.438;2023-02-28T07:56:14;15.90;34.30
33580;DHT22;19909;43.644;-79.438;2023-02-28T07:58:40;15.90;34.30
33580;DHT22;19909;43.644;-79.438;2023-02-28T08:01:07;15.90;34.20
33580;DHT22;19909;43.644;-79.438;2023-02-28T08:03:34;15.90;34.30
33580;DHT22;19909;43.644;-79.438;2023-02-28T08:06:02;15.90;34.30
33580;DHT22;19909;43.644;-79.438;2023-02-28T08:08:28;15.90;34.40
33580;DHT22;19909;43.644;-79.438;2023-02-28T08:11:03;15.90;34.40
33580;DHT22;19909;43.644;-79.438;2023-02-28T08:13:30;15.90;34.40
33580;DHT22;19909;43.644;-79.438;2023-02-28T08:15:57;15.90;34.40
33580;DHT22;19909;43.644;-79.438;2023-02-28T08:18:23;15.90;34.40
33580;DHT22;19909;43.644;-79.438;2023-02-28T08:20:49;15.90;34.40
33580;DHT22;19909;43.644;-79.438;2023-02-28T08:23:16;15.90;34.50
33580;DHT22;19909;43.644;-79.438;2023-02-28T08:25:42;15.80;34.50
33580;DHT22;19909;43.644;-79.438;2023-02-28T08:28:08;15.90;34.50
33580;DHT22;19909;43.644;-79.438;2023-02-28T08:30:34;15.90;34.40
33580;DHT22;19909;43.644;-79.438;2023-02-28T08:33:00;15.90;34.50
33580;DHT22;19909;43.644;-79.438;2023-02-28T08:35:27;15.80;34.40
33580;DHT22;19909;43.644;-79.438;2023-02-28T08:37:53;15.80;34.50
33580;DHT22;19909;43.644;-79.438;2023-02-28T08:40:19;15.80;34.60
33580;DHT22;19909;43.644;-79.438;2023-02-28T08:42:46;15.80;34.50
33580;DHT22;19909;43.644;-79.438;2023-02-28T08:45:14;15.80;34.50
33580;DHT22;19909;43.644;-79.438;2023-02-28T08:47:40;15.80;34.50
33580;DHT22;19909;43.644;-79.438;2023-02-28T08:50:07;15.80;34.60
33580;DHT22;19909;43.644;-79.438;2023-02-28T08:52:34;15.80;34.60
33580;DHT22;19909;43.644;-79.438;2023-02-28T08:55:00;15.80;34.60
33580;DHT22;19909;43.644;-79.438;2023-02-28T08:57:26;15.80;34.60
33580;DHT22;19909;43.644;-79.438;2023-02-28T08:59:53;15.80;34.60
33580;DHT22;19909;43.644;-79.438;2023-02-28T09:02:19;15.80;34.60
33580;DHT22;19909;43.644;-79.438;2023-02-28T09:04:45;15.80;34.60
33580;DHT22;19909;43.644;-79.438;2023-02-28T09:07:11;15.80;34.70
33580;DHT22;19909;43.644;-79.438;2023-02-28T09:09:38;15.80;34.70
33580;DHT22;19909;43.644;-79.438;2023-02-28T09:12:23;15.80;34.70
33580;DHT22;19909;43.644;-79.438;2023-02-28T09:14:50;15.80;34.60
33580;DHT22;19909;43.644;-79.438;2023-02-28T09:17:16;15.80;34.60
33580;DHT22;19909;43.644;-79.438;2023-02-28T09:19:43;15.80;34.70
33580;DHT22;19909;43.644;-79.438;2023-02-28T09:22:10;15.80;34.80
33580;DHT22;19909;43.644;-79.438;2023-02-28T09:24:37;15.80;34.70
33580;DHT22;19909;43.644;-79.438;2023-02-28T09:27:04;15.80;34.70
33580;DHT22;19909;43.644;-79.438;2023-02-28T09:29:32;15.80;34.70
33580;DHT22;19909;43.644;-79.438;2023-02-28T09:31:59;15.80;34.70
33580;DHT22;19909;43.644;-79.438;2023-02-28T09:34:26;15.80;34.70
33580;DHT22;19909;43.644;-79.438;2023-02-28T09:36:53;15.80;34.80
33580;DHT22;19909;43.644;-79.438;2023-02-28T09:39:22;15.80;34.80
33580;DHT22;19909;43.644;-79.438;2023-02-28T09:41:51;15.80;34.80
33580;DHT22;19909;43.644;-79.438;2023-02-28T09:44:38;15.70;34.70
33580;DHT22;19909;43.644;-79.438;2023-02-28T09:49:45;15.80;34.80
33580;DHT22;19909;43.644;-79.438;2023-02-28T09:52:27;15.80;34.90
33580;DHT22;19909;43.644;-79.438;2023-02-28T09:54:54;15.80;34.90
33580;DHT22;19909;43.644;-79.438;2023-02-28T09:57:50;15.80;34.90
33580;DHT22;19909;43.644;-79.438;2023-02-28T10:00:18;15.80;34.80
33580;DHT22;19909;43.644;-79.438;2023-02-28T10:03:06;15.80;34.90
33580;DHT22;19909;43.644;-79.438;2023-02-28T10:11:09;15.80;35.10
33580;DHT22;19909;43.644;-79.438;2023-02-28T10:16:34;15.70;34.90
33580;DHT22;19909;43.644;-79.438;2023-02-28T10:19:17;15.70;35.00
33580;DHT22;19909;43.644;-79.438;2023-02-28T10:22:08;15.70;35.10
33580;DHT22;19909;43.644;-79.438;2023-02-28T10:24:43;15.70;35.00
33580;DHT22;19909;43.644;-79.438;2023-02-28T10:27:21;15.70;35.10
33580;DHT22;19909;43.644;-79.438;2023-02-28T10:29:56;15.80;35.10
33580;DHT22;19909;43.644;-79.438;2023-02-28T10:32:32;15.70;35.10
33580;DHT22;19909;43.644;-79.438;2023-02-28T10:35:15;15.70;35.20
33580;DHT22;19909;43.644;-79.438;2023-02-28T10:37:43;15.70;35.20
33580;DHT22;19909;43.644;-79.438;2023-02-28T10:45:25;15.70;35.30
33580;DHT22;19909;43.644;-79.438;2023-02-28T10:47:56;15.70;35.30
33580;DHT22;19909;43.644;-79.438;2023-02-28T10:50:29;15.70;35.40
33580;DHT22;19909;43.644;-79.438;2023-02-28T10:52:56;15.70;35.30
33580;DHT22;19909;43.644;-79.438;2023-02-28T10:55:29;15.70;35.30
33580;DHT22;19909;43.644;-79.438;2023-02-28T10:57:55;15.70;35.30
33580;DHT22;19909;43.644;-79.438;2023-02-28T11:00:24;15.70;35.30
33580;DHT22;19909;43.644;-79.438;2023-02-28T11:02:51;15.70;35.30
33580;DHT22;19909;43.644;-79.438;2023-02-28T11:05:27;15.70;35.40
33580;DHT22;19909;43.644;-79.438;2023-02-28T11:08:05;15.70;35.30
33580;DHT22;19909;43.644;-79.438;2023-02-28T11:10:32;15.70;35.30
33580;DHT22;19909;43.644;-79.438;2023-02-28T11:13:01;15.70;35.30
33580;DHT22;19909;43.644;-79.438;2023-02-28T11:15:32;15.70;35.90
33580;DHT22;19909;43.644;-79.438;2023-02-28T11:20:33;15.70;35.30
33580;DHT22;19909;43.644;-79.438;2023-02-28T11:23:02;15.70;35.30
33580;DHT22;19909;43.644;-79.438;2023-02-28T11:25:32;15.70;35.30
33580;DHT22;19909;43.644;-79.438;2023-02-28T11:28:01;15.70;35.30
33580;DHT22;19909;43.644;-79.438;2023-02-28T11:30:40;15.70;35.30
33580;DHT22;19909;43.644;-79.438;2023-02-28T11:33:43;15.70;35.30
33580;DHT22;19909;43.644;-79.438;2023-02-28T11:38:42;15.60;35.30
33580;DHT22;19909;43.644;-79.438;2023-02-28T11:41:39;15.70;35.40
33580;DHT22;19909;43.644;-79.438;2023-02-28T11:47:09;15.70;35.40
33580;DHT22;19909;43.644;-79.438;2023-02-28T11:52:55;15.70;35.90
33580;DHT22;19909;43.644;-79.438;2023-02-28T11:55:31;15.70;35.50
33580;DHT22;19909;43.644;-79.438;2023-02-28T12:06:38;15.60;35.50
33580;DHT22;19909;43.644;-79.438;2023-02-28T12:09:31;15.70;35.50
33580;DHT22;19909;43.644;-79.438;2023-02-28T12:12:55;15.60;35.50
33580;DHT22;19909;43.644;-79.438;2023-02-28T12:15:16;15.70;35.50
33580;DHT22;19909;43.644;-79.438;2023-02-28T12:32:13;15.60;35.50
33580;DHT22;19909;43.644;-79.438;2023-02-28T12:35:02;15.60;35.50
33580;DHT22;19909;43.644;-79.438;2023-02-28T12:37:32;15.60;35.50
33580;DHT22;19909;43.644;-79.438;2023-02-28T12:40:04;15.60;35.50
33580;DHT22;19909;43.644;-79.438;2023-02-28T12:42:48;15.60;35.40
33580;DHT22;19909;43.644;-79.438;2023-02-28T12:45:24;15.70;35.50
33580;DHT22;19909;43.644;-79.438;2023-02-28T12:48:02;15.70;35.40
33580;DHT22;19909;43.644;-79.438;2023-02-28T12:50:30;15.60;35.50
33580;DHT22;19909;43.644;-79.438;2023-02-28T12:53:12;15.60;35.50
33580;DHT22;19909;43.644;-79.438;2023-02-28T12:55:50;15.60;35.50
33580;DHT22;19909;43.644;-79.438;2023-02-28T13:09:34;15.60;35.50
33580;DHT22;19909;43.644;-79.438;2023-02-28T13:12:00;15.60;35.50
33580;DHT22;19909;43.644;-79.438;2023-02-28T13:14:36;15.70;35.60
33580;DHT22;19909;43.644;-79.438;2023-02-28T13:19:32;15.70;35.60
33580;DHT22;19909;43.644;-79.438;2023-02-28T13:22:01;15.60;35.50
33580;DHT22;19909;43.644;-79.438;2023-02-28T13:24:45;15.60;35.50
33580;DHT22;19909;43.644;-79.438;2023-02-28T13:29:52;15.70;35.40
33580;DHT22;19909;43.644;-79.438;2023-02-28T13:39:49;15.70;35.50
33580;DHT22;19909;43.644;-79.438;2023-02-28T13:47:34;15.70;35.40
33580;DHT22;19909;43.644;-79.438;2023-02-28T13:55:34;15.70;35.60
33580;DHT22;19909;43.644;-79.438;2023-02-28T14:01:08;15.70;35.40
33580;DHT22;19909;43.644;-79.438;2023-02-28T14:06:30;15.70;35.70
33580;DHT22;19909;43.644;-79.438;2023-02-28T14:11:38;15.70;35.50
33580;DHT22;19909;43.644;-79.438;2023-02-28T14:14:06;15.70;35.50
33580;DHT22;19909;43.644;-79.438;2023-02-28T14:16:43;15.70;35.60
33580;DHT22;19909;43.644;-79.438;2023-02-28T14:19:21;15.70;35.70
33580;DHT22;19909;43.644;-79.438;2023-02-28T14:22:19;15.70;35.60
33580;DHT22;19909;43.644;-79.438;2023-02-28T14:31:09;15.70;35.30
33580;DHT22;19909;43.644;-79.438;2023-02-28T14:36:44;15.60;35.70
33580;DHT22;19909;43.644;-79.438;2023-02-28T14:39:16;15.70;35.60
33580;DHT22;19909;43.644;-79.438;2023-02-28T14:41:46;15.70;35.60
33580;DHT22;19909;43.644;-79.438;2023-02-28T14:44:23;15.70;35.70
33580;DHT22;19909;43.644;-79.438;2023-02-28T14:46:54;15.70;35.50
33580;DHT22;19909;43.644;-79.438;2023-02-28T14:49:24;15.70;35.60
33580;DHT22;19909;43.644;-79.438;2023-02-28T14:52:15;15.70;35.70
33580;DHT22;19909;43.644;-79.438;2023-02-28T14:54:43;15.70;35.40
33580;DHT22;19909;43.644;-79.438;2023-02-28T14:57:31;15.60;35.30
33580;DHT22;19909;43.644;-79.438;2023-02-28T15:02:33;15.70;35.50
33580;DHT22;19909;43.644;-79.438;2023-02-28T15:05:20;15.70;35.50
33580;DHT22;19909;43.644;-79.438;2023-02-28T15:07:49;15.70;35.60
33580;DHT22;19909;43.644;-79.438;2023-02-28T15:10:27;15.70;35.50
33580;DHT22;19909;43.644;-79.438;2023-02-28T15:12:57;15.70;35.50
33580;DHT22;19909;43.644;-79.438;2023-02-28T15:15:48;15.70;35.50
33580;DHT22;19909;43.644;-79.438;2023-02-28T15:21:08;15.70;35.30
33580;DHT22;19909;43.644;-79.438;2023-02-28T15:23:36;15.70;35.50
33580;DHT22;19909;43.644;-79.438;2023-02-28T15:26:03;15.60;35.40
33580;DHT22;19909;43.644;-79.438;2023-02-28T15:28:30;15.60;35.50
33580;DHT22;19909;43.644;-79.438;2023-02-28T15:30:59;15.70;35.60
33580;DHT22;19909;43.644;-79.438;2023-02-28T15:33:31;15.70;35.50
33580;DHT22;19909;43.644;-79.438;2023-02-28T15:36:15;15.60;35.10
33580;DHT22;19909;43.644;-79.438;2023-02-28T15:38:43;15.60;35.10
33580;DHT22;19909;43.644;-79.438;2023-02-28T15:41:28;15.60;35.00
33580;DHT22;19909;43.644;-79.438;2023-02-28T15:44:14;15.60;35.30
33580;DHT22;19909;43.644;-79.438;2023-02-28T15:47:06;15.70;35.30
33580;DHT22;19909;43.644;-79.438;2023-02-28T15:49:49;15.60;35.90
33580;DHT22;19909;43.644;-79.438;2023-02-28T15:52:33;15.60;35.30
33580;DHT22;19909;43.644;-79.438;2023-02-28T15:55:28;15.60;35.10
33580;DHT22;19909;43.644;-79.438;2023-02-28T15:57:57;15.60;35.30
33580;DHT22;19909;43.644;-79.438;2023-02-28T16:00:28;15.60;35.30
33580;DHT22;19909;43.644;-79.438;2023-02-28T16:02:54;15.70;35.40
33580;DHT22;19909;43.644;-79.438;2023-02-28T16:05:24;15.60;35.30
33580;DHT22;19909;43.644;-79.438;2023-02-28T16:07:57;15.60;35.20
33580;DHT22;19909;43.644;-79.438;2023-02-28T16:10:25;15.60;35.00
33580;DHT22;19909;43.644;-79.438;2023-02-28T16:12:54;15.60;35.10
33580;DHT22;19909;43.644;-79.438;2023-02-28T16:15:27;15.60;35.30
33580;DHT22;19909;43.644;-79.438;2023-02-28T16:17:55;15.70;35.30
33580;DHT22;19909;43.644;-79.438;2023-02-28T16:20:30;15.70;35.40
33580;DHT22;19909;43.644;-79.438;2023-02-28T16:22:56;15.60;35.20
33580;DHT22;19909;43.644;-79.438;2023-02-28T16:25:47;15.60;35.30
33580;DHT22;19909;43.644;-79.438;2023-02-28T16:28:25;15.70;35.30
33580;DHT22;19909;43.644;-79.438;2023-02-28T16:30:55;15.60;35.30
33580;DHT22;19909;43.644;-79.438;2023-02-28T16:33:21;15.70;35.50
33580;DHT22;19909;43.644;-79.438;2023-02-28T16:35:48;15.70;35.30
33580;DHT22;19909;43.644;-79.438;2023-02-28T16:38:14;15.70;35.30
33580;DHT22;19909;43.644;-79.438;2023-02-28T16:40:40;15.70;35.30
33580;DHT22;19909;43.644;-79.438;2023-02-28T16:43:17;15.70;35.30
33580;DHT22;19909;43.644;-79.438;2023-02-28T16:45:45;15.60;35.30
33580;DHT22;19909;43.644;-79.438;2023-02-28T16:48:14;15.60;35.40
33580;DHT22;19909;43.644;-79.438;2023-02-28T16:50:42;15.70;35.30
33580;DHT22;19909;43.644;-79.438;2023-02-28T16:53:11;15.60;35.00
33580;DHT22;19909;43.644;-79.438;2023-02-28T16:55:39;15.70;35.20
33580;DHT22;19909;43.644;-79.438;2023-02-28T16:58:06;15.70;35.20
33580;DHT22;19909;43.644;-79.438;2023-02-28T17:00:32;15.60;35.20
33580;DHT22;19909;43.644;-79.438;2023-02-28T17:02:58;15.70;35.30
33580;DHT22;19909;43.644;-79.438;2023-02-28T17:05:26;15.70;35.20
33580;DHT22;19909;43.644;-79.438;2023-02-28T17:07:54;15.60;35.10
33580;DHT22;19909;43.644;-79.438;2023-02-28T17:10:23;15.60;35.20
33580;DHT22;19909;43.644;-79.438;2023-02-28T17:12:50;15.60;35.00
33580;DHT22;19909;43.644;-79.438;2023-02-28T17:15:18;15.60;35.30
33580;DHT22;19909;43.644;-79.438;2023-02-28T17:17:45;15.70;35.30
33580;DHT22;19909;43.644;-79.438;2023-02-28T17:20:16;15.70;35.30
33580;DHT22;19909;43.644;-79.438;2023-02-28T17:22:42;15.70;35.30
33580;DHT22;19909;43.644;-79.438;2023-02-28T17:25:10;15.70;35.30
33580;DHT22;19909;43.644;-79.438;2023-02-28T17:27:37;15.70;35.30
33580;DHT22;19909;43.644;-79.438;2023-02-28T17:32:36;15.70;35.40
33580;DHT22;19909;43.644;-79.438;2023-02-28T17:35:02;15.70;35.40
33580;DHT22;19909;43.644;-79.438;2023-02-28T17:37:28;15.60;35.30
33580;DHT22;19909;43.644;-79.438;2023-02-28T17:39:54;15.60;35.30
33580;DHT22;19909;43.644;-79.438;2023-02-28T17:42:20;15.60;35.20
33580;DHT22;19909;43.644;-79.438;2023-02-28T17:44:47;15.60;35.30
33580;DHT22;19909;43.644;-79.438;2023-02-28T17:47:13;15.60;35.30